createdAt,value
2023-04-16T00:01:22.096Z,93.91
2023-04-16T00:03:48.758Z,93.92
2023-04-16T00:06:15.384Z,93.65
2023-04-16T00:08:43.492Z,93.78
2023-04-16T00:11:09.879Z,93.62
2023-04-16T00:13:36.766Z,93.90
2023-04-16T00:16:03.198Z,93.85
2023-04-16T00:18:29.579Z,93.86
2023-04-16T00:20:56.086Z,94.00
2023-04-16T00:23:22.453Z,94.01
2023-04-16T00:25:48.902Z,94.29
2023-04-16T00:28:15.304Z,94.46
2023-04-16T00:30:41.706Z,94.32
2023-04-16T00:33:08.361Z,94.93
2023-04-16T00:35:34.970Z,94.86
2023-04-16T00:38:01.376Z,94.73
2023-04-16T00:40:29.105Z,95.07
2023-04-16T00:42:55.730Z,94.73
2023-04-16T00:45:22.176Z,95.16
2023-04-16T00:47:48.865Z,95.04
2023-04-16T00:50:15.831Z,95.26
2023-04-16T00:52:42.820Z,95.34
2023-04-16T00:55:13.364Z,95.46
2023-04-16T00:57:39.861Z,95.23
2023-04-16T01:00:07.009Z,95.34
2023-04-16T01:02:34.304Z,95.49
2023-04-16T01:05:02.117Z,95.37
2023-04-16T01:07:28.659Z,95.64
2023-04-16T01:09:55.277Z,95.42
2023-04-16T01:12:21.891Z,95.51
2023-04-16T01:14:48.587Z,95.69
2023-04-16T01:17:15.027Z,95.55
2023-04-16T01:19:42.552Z,95.48
2023-04-16T01:22:09.051Z,95.49
2023-04-16T01:24:36.377Z,95.27
2023-04-16T01:27:03.043Z,95.21
2023-04-16T01:29:29.512Z,95.54
2023-04-16T01:31:56.096Z,95.54
2023-04-16T01:34:22.571Z,95.45
2023-04-16T01:36:49.007Z,95.38
2023-04-16T01:39:16.328Z,95.40
2023-04-16T01:41:43.627Z,95.31
2023-04-16T01:44:10.212Z,95.40
2023-04-16T01:46:37.824Z,95.31
2023-04-16T01:49:05.502Z,95.07
2023-04-16T01:51:32.229Z,95.00
2023-04-16T01:53:58.975Z,94.96
2023-04-16T01:56:25.599Z,94.97
2023-04-16T01:58:52.992Z,95.00
2023-04-16T02:01:19.975Z,94.74
2023-04-16T02:03:47.187Z,94.96
2023-04-16T02:06:14.731Z,94.88
2023-04-16T02:08:41.714Z,95.01
2023-04-16T02:11:08.228Z,95.03
2023-04-16T02:13:34.763Z,95.09
2023-04-16T02:16:01.182Z,94.98
2023-04-16T02:18:27.909Z,95.00
2023-04-16T02:20:54.293Z,95.08
2023-04-16T02:23:20.823Z,94.92
2023-04-16T02:25:47.319Z,95.01
2023-04-16T02:28:16.364Z,94.95
2023-04-16T02:30:43.696Z,95.27
2023-04-16T02:33:11.664Z,95.25
2023-04-16T02:35:39.638Z,94.97
2023-04-16T02:38:06.738Z,95.01
2023-04-16T02:40:33.714Z,94.97
2023-04-16T02:43:00.469Z,94.99
2023-04-16T02:45:26.931Z,95.21
2023-04-16T02:47:53.344Z,95.21
2023-04-16T02:50:19.927Z,95.02
2023-04-16T02:52:46.332Z,95.03
2023-04-16T02:55:12.746Z,94.98
2023-04-16T02:57:39.180Z,95.03
2023-04-16T03:00:06.196Z,95.09
2023-04-16T03:02:32.826Z,95.04
2023-04-16T03:04:59.326Z,94.89
2023-04-16T03:07:26.061Z,95.12
2023-04-16T03:09:52.511Z,95.30
2023-04-16T03:12:18.988Z,95.17
2023-04-16T03:14:45.336Z,95.02
2023-04-16T03:17:12.078Z,95.28
2023-04-16T03:19:38.551Z,95.33
2023-04-16T03:22:04.973Z,95.38
2023-04-16T03:24:32.213Z,95.24
2023-04-16T03:26:58.922Z,95.34
2023-04-16T03:29:26.630Z,95.34
2023-04-16T03:31:53.194Z,95.25
2023-04-16T03:34:19.564Z,95.56
2023-04-16T03:36:45.891Z,95.56
2023-04-16T03:39:12.377Z,95.60
2023-04-16T03:41:38.730Z,95.33
2023-04-16T03:44:05.218Z,95.43
2023-04-16T03:46:31.624Z,95.61
2023-04-16T03:48:58.004Z,95.74
2023-04-16T03:51:24.801Z,95.57
2023-04-16T03:53:51.125Z,95.31
2023-04-16T03:56:17.775Z,95.48
2023-04-16T03:58:44.190Z,95.62
2023-04-16T04:01:10.612Z,95.75
2023-04-16T04:03:37.140Z,95.64
2023-04-16T04:06:09.926Z,95.79
2023-04-16T04:08:36.394Z,95.84
2023-04-16T04:11:02.819Z,95.75
2023-04-16T04:13:29.218Z,95.58
2023-04-16T04:15:55.707Z,95.67
2023-04-16T04:18:22.131Z,95.71
2023-04-16T04:20:48.637Z,95.89
2023-04-16T04:23:15.409Z,95.60
2023-04-16T04:25:41.792Z,95.72
2023-04-16T04:28:08.237Z,95.57
2023-04-16T04:30:35.836Z,95.59
2023-04-16T04:33:02.467Z,95.63
2023-04-16T04:35:29.077Z,95.85
2023-04-16T04:37:55.677Z,95.56
2023-04-16T04:40:22.176Z,96.03
2023-04-16T04:42:48.513Z,95.92
2023-04-16T04:45:15.191Z,95.92
2023-04-16T04:47:41.796Z,96.13
2023-04-16T04:50:08.573Z,96.16
2023-04-16T04:52:34.961Z,96.26
2023-04-16T04:55:01.613Z,96.40
2023-04-16T04:57:27.925Z,96.26
2023-04-16T04:59:54.255Z,96.34
2023-04-16T05:02:20.811Z,96.44
2023-04-16T05:04:47.368Z,96.54
2023-04-16T05:07:13.776Z,96.49
2023-04-16T05:09:40.489Z,96.23
2023-04-16T05:12:07.063Z,96.16
2023-04-16T05:14:33.544Z,96.23
2023-04-16T05:16:59.949Z,96.38
2023-04-16T05:19:26.435Z,96.51
2023-04-16T05:21:52.938Z,96.55
2023-04-16T05:24:20.008Z,96.13
2023-04-16T05:26:46.348Z,96.16
2023-04-16T05:29:12.689Z,96.07
2023-04-16T05:31:39.101Z,96.12
2023-04-16T05:34:05.464Z,96.16
2023-04-16T05:36:31.791Z,96.31
2023-04-16T05:38:58.183Z,96.08
2023-04-16T05:41:24.635Z,95.85
2023-04-16T05:43:51.062Z,96.06
2023-04-16T05:46:17.467Z,96.04
2023-04-16T05:48:43.939Z,95.96
2023-04-16T05:51:10.321Z,96.08
2023-04-16T05:53:36.758Z,95.97
2023-04-16T05:56:03.242Z,96.00
2023-04-16T05:58:29.596Z,95.66
2023-04-16T06:00:55.993Z,95.69
2023-04-16T06:03:22.525Z,95.52
2023-04-16T06:05:48.962Z,95.94
2023-04-16T06:08:15.395Z,95.90
2023-04-16T06:10:41.785Z,95.73
2023-04-16T06:13:08.242Z,95.91
2023-04-16T06:15:34.614Z,95.69
2023-04-16T06:18:01.193Z,95.94
2023-04-16T06:20:27.809Z,95.82
2023-04-16T06:22:55.467Z,96.16
2023-04-16T06:25:21.929Z,95.70
2023-04-16T06:27:48.327Z,95.74
2023-04-16T06:30:15.863Z,95.80
2023-04-16T06:32:43.163Z,95.64
2023-04-16T06:35:09.845Z,95.84
2023-04-16T06:37:36.180Z,95.99
2023-04-16T06:40:02.580Z,95.98
2023-04-16T06:42:29.634Z,95.75
2023-04-16T06:44:56.108Z,95.91
2023-04-16T06:47:22.549Z,95.94
2023-04-16T06:49:48.919Z,96.04
2023-04-16T06:52:15.328Z,95.74
2023-04-16T06:54:41.842Z,95.66
2023-04-16T06:57:08.219Z,95.96
2023-04-16T06:59:34.608Z,95.54
2023-04-16T07:02:01.341Z,95.63
2023-04-16T07:04:27.982Z,95.54
2023-04-16T07:06:54.368Z,95.52
2023-04-16T07:09:20.925Z,95.33
2023-04-16T07:11:47.372Z,95.46
2023-04-16T07:14:13.735Z,95.48
2023-04-16T07:16:40.587Z,95.23
2023-04-16T07:19:07.057Z,95.14
2023-04-16T07:21:33.445Z,95.50
2023-04-16T07:23:59.817Z,95.52
2023-04-16T07:26:26.618Z,95.13
2023-04-16T07:28:52.920Z,95.00
2023-04-16T07:31:19.311Z,94.79
2023-04-16T07:33:45.712Z,94.95
2023-04-16T07:36:12.365Z,95.14
2023-04-16T07:38:38.714Z,94.78
2023-04-16T07:41:05.399Z,94.73
2023-04-16T07:43:31.714Z,94.78
2023-04-16T07:45:58.098Z,94.83
2023-04-16T07:48:24.562Z,94.48
2023-04-16T07:50:50.876Z,94.67
2023-04-16T07:53:17.224Z,94.36
2023-04-16T07:55:43.674Z,94.46
2023-04-16T07:58:10.228Z,94.70
2023-04-16T08:00:36.663Z,94.27
2023-04-16T08:03:03.684Z,94.37
2023-04-16T08:05:30.433Z,94.23
2023-04-16T08:07:56.810Z,94.21
2023-04-16T08:10:23.256Z,93.79
2023-04-16T08:12:49.661Z,93.81
2023-04-16T08:15:16.009Z,93.62
2023-04-16T08:17:42.474Z,93.38
2023-04-16T08:20:09.852Z,93.65
2023-04-16T08:22:37.045Z,93.14
2023-04-16T08:25:04.165Z,93.34
2023-04-16T08:27:30.698Z,92.91
2023-04-16T08:29:57.120Z,93.27
2023-04-16T08:32:23.562Z,93.17
2023-04-16T08:34:50.067Z,92.91
2023-04-16T08:37:16.507Z,92.81
2023-04-16T08:39:42.892Z,93.21
2023-04-16T08:42:18.331Z,92.98
2023-04-16T08:44:49.582Z,92.58
2023-04-16T08:47:16.395Z,92.51
2023-04-16T08:49:46.169Z,92.20
2023-04-16T08:52:22.471Z,92.71
2023-04-16T08:55:03.651Z,92.55
2023-04-16T08:57:38.537Z,91.93
2023-04-16T09:00:07.569Z,92.10
2023-04-16T09:02:34.782Z,92.10
2023-04-16T09:05:06.511Z,91.81
2023-04-16T09:07:34.865Z,91.90
2023-04-16T09:10:04.148Z,91.49
2023-04-16T09:12:31.660Z,91.28
2023-04-16T09:15:01.177Z,90.90
2023-04-16T09:17:28.120Z,90.95
2023-04-16T09:19:54.999Z,90.63
2023-04-16T09:22:21.415Z,90.70
2023-04-16T09:24:47.843Z,90.58
2023-04-16T09:27:14.257Z,90.50
2023-04-16T09:29:41.441Z,90.10
2023-04-16T09:32:10.254Z,90.31
2023-04-16T09:34:57.755Z,90.01
2023-04-16T09:37:26.055Z,89.85
2023-04-16T09:39:55.418Z,89.67
2023-04-16T09:42:23.707Z,89.37
2023-04-16T09:44:50.188Z,89.11
2023-04-16T09:47:16.909Z,88.98
2023-04-16T09:49:43.697Z,89.01
2023-04-16T09:52:17.303Z,89.05
2023-04-16T09:54:51.128Z,88.68
2023-04-16T09:57:21.971Z,88.43
2023-04-16T09:59:57.726Z,88.34
2023-04-16T10:02:31.109Z,88.40
2023-04-16T10:04:57.850Z,88.37
2023-04-16T10:07:28.712Z,88.12
2023-04-16T10:09:55.943Z,88.15
2023-04-16T10:12:22.257Z,88.19
2023-04-16T10:14:50.303Z,88.01
2023-04-16T10:17:17.116Z,88.12
2023-04-16T10:19:43.718Z,88.22
2023-04-16T10:22:11.280Z,88.11
2023-04-16T10:24:38.674Z,87.94
2023-04-16T10:27:05.036Z,87.33
2023-04-16T10:29:32.854Z,87.54
2023-04-16T10:32:00.526Z,87.75
2023-04-16T10:34:27.575Z,87.60
2023-04-16T10:36:54.941Z,87.16
2023-04-16T10:39:23.471Z,86.92
2023-04-16T10:41:51.270Z,87.27
2023-04-16T10:44:19.602Z,87.69
2023-04-16T10:46:52.068Z,87.74
2023-04-16T10:49:25.852Z,87.28
2023-04-16T10:51:55.898Z,87.08
2023-04-16T10:54:30.114Z,86.88
2023-04-16T10:56:58.829Z,87.10
2023-04-16T10:59:29.946Z,86.88
2023-04-16T11:01:59.097Z,86.83
2023-04-16T11:04:25.560Z,86.66
2023-04-16T11:07:16.960Z,86.39
2023-04-16T11:09:47.698Z,86.04
2023-04-16T11:12:18.915Z,86.05
2023-04-16T11:14:50.501Z,86.12
2023-04-16T11:17:17.575Z,86.49
2023-04-16T11:19:44.413Z,85.53
2023-04-16T11:22:16.950Z,85.73
2023-04-16T11:24:47.608Z,85.47
2023-04-16T11:27:15.231Z,85.83
2023-04-16T11:29:42.265Z,85.54
2023-04-16T11:32:08.692Z,85.60
2023-04-16T11:34:35.147Z,85.59
2023-04-16T11:37:01.508Z,85.61
2023-04-16T11:39:27.864Z,85.48
2023-04-16T11:41:55.468Z,85.67
2023-04-16T11:44:24.149Z,85.32
2023-04-16T11:46:51.872Z,85.05
2023-04-16T11:49:27.230Z,85.23
2023-04-16T11:51:53.586Z,85.32
2023-04-16T11:54:21.060Z,85.28
2023-04-16T11:56:48.680Z,85.03
2023-04-16T11:59:17.380Z,85.01
2023-04-16T12:01:52.386Z,84.94
2023-04-16T12:04:20.818Z,85.01
2023-04-16T12:07:06.135Z,84.83
2023-04-16T12:09:32.719Z,84.16
2023-04-16T12:11:59.047Z,83.97
2023-04-16T12:14:25.437Z,84.29
2023-04-16T12:16:51.993Z,84.33
2023-04-16T12:19:18.765Z,84.43
2023-04-16T12:21:47.120Z,84.24
2023-04-16T12:24:16.214Z,84.04
2023-04-16T12:26:57.376Z,83.72
2023-04-16T12:29:26.262Z,83.49
2023-04-16T12:31:53.509Z,83.86
2023-04-16T12:34:21.543Z,83.65
2023-04-16T12:37:10.547Z,83.39
2023-04-16T12:39:36.928Z,83.48
2023-04-16T12:42:05.342Z,83.59
2023-04-16T12:44:31.837Z,83.45
2023-04-16T12:46:58.159Z,83.25
2023-04-16T12:49:24.531Z,83.52
2023-04-16T12:51:50.882Z,83.48
2023-04-16T12:54:17.283Z,83.48
2023-04-16T12:56:43.688Z,83.38
2023-04-16T13:01:37.199Z,83.53
2023-04-16T13:04:04.108Z,83.33
2023-04-16T13:06:33.647Z,83.52
2023-04-16T13:09:00.633Z,83.62
2023-04-16T13:11:27.398Z,83.20
2023-04-16T13:13:53.773Z,83.38
2023-04-16T13:16:20.219Z,83.37
2023-04-16T13:18:46.709Z,82.80
2023-04-16T13:21:13.177Z,82.83
2023-04-16T13:23:39.672Z,82.83
2023-04-16T13:26:06.191Z,82.50
2023-04-16T13:28:32.577Z,82.52
2023-04-16T13:30:59.485Z,82.21
2023-04-16T13:33:26.013Z,82.59
2023-04-16T13:35:52.419Z,82.74
2023-04-16T13:38:18.878Z,82.22
2023-04-16T13:40:45.363Z,81.95
2023-04-16T13:43:13.628Z,81.93
2023-04-16T13:45:40.269Z,81.94
2023-04-16T13:48:06.734Z,82.00
2023-04-16T13:50:33.218Z,82.01
2023-04-16T13:52:59.602Z,82.17
2023-04-16T13:55:26.134Z,82.09
2023-04-16T13:57:53.365Z,82.10
2023-04-16T14:00:20.382Z,82.02
2023-04-16T14:02:48.591Z,82.04
2023-04-16T14:05:15.532Z,81.89
2023-04-16T14:07:42.019Z,81.70
2023-04-16T14:10:08.931Z,81.51
2023-04-16T14:12:36.499Z,81.08
2023-04-16T14:15:04.419Z,80.94
2023-04-16T14:17:30.945Z,80.98
2023-04-16T14:19:57.328Z,81.19
2023-04-16T14:22:23.813Z,81.13
2023-04-16T14:24:50.243Z,81.02
2023-04-16T14:27:17.010Z,80.72
2023-04-16T14:29:44.337Z,80.63
2023-04-16T14:32:10.839Z,80.36
2023-04-16T14:34:37.289Z,80.01
2023-04-16T14:37:04.212Z,79.64
2023-04-16T14:39:31.018Z,79.87
2023-04-16T14:41:57.364Z,79.62
2023-04-16T14:44:23.924Z,79.67
2023-04-16T14:46:50.398Z,79.93
2023-04-16T14:49:17.065Z,79.87
2023-04-16T14:51:45.799Z,79.66
2023-04-16T14:54:12.189Z,79.87
2023-04-16T14:56:38.547Z,80.22
2023-04-16T14:59:04.889Z,79.94
2023-04-16T15:01:32.190Z,79.72
2023-04-16T15:04:01.440Z,79.75
2023-04-16T15:06:28.690Z,79.50
2023-04-16T15:08:55.200Z,79.57
2023-04-16T15:11:21.541Z,79.46
2023-04-16T15:13:47.898Z,79.55
2023-04-16T15:16:14.358Z,79.19
2023-04-16T15:18:40.885Z,78.97
2023-04-16T15:21:07.259Z,78.95
2023-04-16T15:23:33.659Z,78.71
2023-04-16T15:26:00.114Z,78.59
2023-04-16T15:28:27.079Z,78.03
2023-04-16T15:30:53.456Z,77.85
2023-04-16T15:33:22.979Z,77.87
2023-04-16T15:35:51.409Z,78.17
2023-04-16T15:38:18.731Z,78.12
2023-04-16T15:40:45.179Z,77.57
2023-04-16T15:43:11.597Z,78.10
2023-04-16T15:45:37.934Z,78.59
2023-04-16T15:48:05.652Z,78.43
2023-04-16T15:50:33.035Z,78.62
2023-04-16T15:52:59.420Z,78.97
2023-04-16T15:55:26.447Z,79.00
2023-04-16T15:57:52.811Z,78.82
2023-04-16T16:00:21.163Z,79.25
2023-04-16T16:02:47.812Z,78.95
2023-04-16T16:05:14.837Z,79.29
2023-04-16T16:07:41.841Z,79.57
2023-04-16T16:10:10.030Z,79.39
2023-04-16T16:12:37.295Z,79.34
2023-04-16T16:15:04.655Z,79.36
2023-04-16T16:17:31.088Z,79.45
2023-04-16T16:19:58.769Z,79.57
2023-04-16T16:22:25.653Z,79.47
2023-04-16T16:24:52.777Z,79.34
2023-04-16T16:27:19.798Z,79.25
2023-04-16T16:29:46.445Z,79.17
2023-04-16T16:32:13.355Z,79.44
2023-04-16T16:34:39.686Z,80.07
2023-04-16T16:37:06.336Z,79.90
2023-04-16T16:39:33.137Z,79.94
2023-04-16T16:41:59.943Z,79.93
2023-04-16T16:44:27.072Z,80.52
2023-04-16T16:46:53.964Z,80.48
2023-04-16T16:49:20.420Z,80.43
2023-04-16T16:51:47.448Z,80.65
2023-04-16T16:54:14.333Z,80.54
2023-04-16T16:56:40.890Z,80.71
2023-04-16T16:59:08.895Z,80.68
2023-04-16T17:01:35.806Z,81.18
2023-04-16T17:04:02.526Z,81.36
2023-04-16T17:06:29.000Z,81.03
2023-04-16T17:08:55.821Z,81.63
2023-04-16T17:11:22.218Z,81.76
2023-04-16T17:13:48.586Z,81.64
2023-04-16T17:16:16.651Z,81.77
2023-04-16T17:18:43.182Z,81.91
2023-04-16T17:21:09.583Z,81.87
2023-04-16T17:23:36.096Z,82.04
2023-04-16T17:26:02.521Z,82.19
2023-04-16T17:28:28.922Z,82.31
2023-04-16T17:30:56.773Z,81.91
2023-04-16T17:33:23.280Z,82.31
2023-04-16T17:35:49.660Z,82.97
2023-04-16T17:38:16.053Z,82.78
2023-04-16T17:40:42.494Z,83.01
2023-04-16T17:43:08.972Z,83.37
2023-04-16T17:45:35.387Z,83.19
2023-04-16T17:48:01.866Z,83.45
2023-04-16T17:50:28.343Z,83.42
2023-04-16T17:52:54.752Z,83.32
2023-04-16T17:55:21.242Z,83.76
2023-04-16T17:57:47.637Z,83.74
2023-04-16T18:00:14.433Z,84.06
2023-04-16T18:02:41.424Z,84.40
2023-04-16T18:05:08.731Z,84.07
2023-04-16T18:07:36.334Z,84.27
2023-04-16T18:10:02.874Z,84.54
2023-04-16T18:12:29.252Z,84.57
2023-04-16T18:14:55.738Z,85.04
2023-04-16T18:17:22.791Z,84.93
2023-04-16T18:19:49.278Z,85.39
2023-04-16T18:22:15.760Z,85.61
2023-04-16T18:24:42.085Z,85.89
2023-04-16T18:27:08.547Z,86.28
2023-04-16T18:29:35.372Z,86.54
2023-04-16T18:32:04.156Z,86.74
2023-04-16T18:34:31.636Z,86.77
2023-04-16T18:36:58.120Z,86.97
2023-04-16T18:39:24.516Z,86.84
2023-04-16T18:41:50.841Z,87.11
2023-04-16T18:44:17.703Z,87.11
2023-04-16T18:46:44.149Z,86.84
2023-04-16T18:49:10.836Z,87.42
2023-04-16T18:51:37.346Z,87.24
2023-04-16T18:54:03.909Z,87.75
2023-04-16T18:56:31.078Z,87.41
2023-04-16T18:58:57.476Z,87.83
2023-04-16T19:01:23.919Z,87.55
2023-04-16T19:03:50.500Z,87.57
2023-04-16T19:06:17.168Z,87.76
2023-04-16T19:08:43.584Z,87.82
2023-04-16T19:11:09.896Z,87.55
2023-04-16T19:13:38.039Z,87.66
2023-04-16T19:16:11.155Z,88.05
2023-04-16T19:18:38.853Z,87.68
2023-04-16T19:21:06.860Z,87.48
2023-04-16T19:23:33.182Z,88.06
2023-04-16T19:26:01.215Z,88.07
2023-04-16T19:28:28.269Z,88.27
2023-04-16T19:30:54.756Z,88.26
2023-04-16T19:33:21.235Z,88.42
2023-04-16T19:35:47.608Z,88.47
2023-04-16T19:38:14.052Z,88.58
2023-04-16T19:40:41.010Z,88.63
2023-04-16T19:43:07.530Z,88.19
2023-04-16T19:45:33.991Z,88.20
2023-04-16T19:48:00.548Z,88.54
2023-04-16T19:50:26.978Z,88.72
2023-04-16T19:52:53.378Z,88.83
2023-04-16T19:55:19.945Z,88.97
2023-04-16T19:57:47.814Z,88.92
2023-04-16T20:00:14.633Z,88.90
2023-04-16T20:02:41.247Z,89.14
2023-04-16T20:05:08.224Z,88.80
2023-04-16T20:07:34.674Z,88.72
2023-04-16T20:10:02.564Z,89.01
2023-04-16T20:12:28.932Z,88.82
2023-04-16T20:14:55.303Z,89.12
2023-04-16T20:17:21.668Z,89.02
2023-04-16T20:19:49.523Z,89.26
2023-04-16T20:22:18.214Z,89.05
2023-04-16T20:24:47.953Z,89.05
2023-04-16T20:27:14.992Z,89.02
2023-04-16T20:29:41.792Z,89.07
2023-04-16T20:32:08.218Z,89.08
2023-04-16T20:34:34.570Z,89.09
2023-04-16T20:37:00.913Z,89.08
2023-04-16T20:39:27.358Z,89.18
2023-04-16T20:41:56.658Z,89.03
2023-04-16T20:44:26.315Z,89.38
2023-04-16T20:46:54.973Z,89.74
2023-04-16T20:49:21.453Z,89.76
2023-04-16T20:51:47.901Z,89.68
2023-04-16T20:54:14.320Z,89.58
2023-04-16T20:56:40.808Z,89.94
2023-04-16T20:59:07.148Z,89.94
2023-04-16T21:01:33.544Z,89.98
2023-04-16T21:04:00.178Z,89.97
2023-04-16T21:06:27.506Z,89.95
2023-04-16T21:08:53.877Z,90.36
2023-04-16T21:11:20.718Z,90.27
2023-04-16T21:13:47.146Z,90.34
2023-04-16T21:16:13.496Z,90.16
2023-04-16T21:18:39.899Z,90.64
2023-04-16T21:21:06.592Z,90.17
2023-04-16T21:23:32.916Z,90.57
2023-04-16T21:25:59.277Z,90.70
2023-04-16T21:28:25.779Z,90.56
2023-04-16T21:30:52.863Z,90.82
2023-04-16T21:33:19.342Z,90.79
2023-04-16T21:35:51.271Z,91.13
2023-04-16T21:38:17.620Z,91.02
2023-04-16T21:40:45.896Z,90.98
2023-04-16T21:43:12.236Z,90.83
2023-04-16T21:45:38.649Z,91.25
2023-04-16T21:48:05.383Z,91.25
2023-04-16T21:50:31.742Z,91.19
2023-04-16T21:52:58.108Z,91.50
2023-04-16T21:55:24.442Z,91.17
2023-04-16T21:57:50.845Z,91.08
2023-04-16T22:00:18.237Z,91.08
2023-04-16T22:02:44.835Z,91.11
2023-04-16T22:05:11.513Z,91.32
2023-04-16T22:07:38.360Z,91.25
2023-04-16T22:10:05.093Z,91.22
2023-04-16T22:12:31.601Z,90.96
2023-04-16T22:15:02.838Z,90.98
2023-04-16T22:17:30.137Z,91.21
2023-04-16T22:20:00.271Z,91.21
2023-04-16T22:22:26.596Z,91.21
2023-04-16T22:24:53.372Z,91.24
2023-04-16T22:27:19.793Z,91.14
2023-04-16T22:29:46.164Z,91.25
2023-04-16T22:32:12.596Z,91.54
2023-04-16T22:34:40.159Z,91.36
2023-04-16T22:37:07.926Z,91.75
2023-04-16T22:39:34.724Z,91.88
2023-04-16T22:42:02.381Z,91.76
2023-04-16T22:44:28.725Z,91.79
2023-04-16T22:46:55.117Z,92.36
2023-04-16T22:49:21.549Z,92.44
2023-04-16T22:51:47.941Z,92.43
2023-04-16T22:54:14.375Z,92.22
2023-04-16T22:56:41.034Z,92.07
2023-04-16T22:59:07.966Z,92.27
2023-04-16T23:01:34.815Z,92.22
2023-04-16T23:04:01.311Z,92.43
2023-04-16T23:06:27.770Z,92.55
2023-04-16T23:08:54.199Z,92.43
2023-04-16T23:11:20.833Z,92.43
2023-04-16T23:13:47.236Z,92.41
2023-04-16T23:16:13.735Z,92.50
2023-04-16T23:18:40.189Z,92.67
2023-04-16T23:21:06.572Z,92.57
2023-04-16T23:23:33.009Z,92.28
2023-04-16T23:26:00.885Z,92.47
2023-04-16T23:28:27.268Z,92.46
2023-04-16T23:30:53.768Z,92.56
2023-04-16T23:33:20.212Z,92.41
2023-04-16T23:35:47.397Z,92.78
2023-04-16T23:38:13.789Z,92.70
2023-04-16T23:40:40.320Z,92.81
2023-04-16T23:43:06.679Z,92.93
2023-04-16T23:45:33.179Z,92.70
2023-04-16T23:47:59.560Z,92.84
2023-04-16T23:50:26.135Z,92.99
2023-04-16T23:52:52.513Z,92.88
2023-04-16T23:55:18.995Z,92.73
2023-04-16T23:57:45.488Z,92.92
